Strona główna
METAR-TAF:

METAR-TAF

Lotnisko :

Mersing, Malezja

Szerokość geograficzna: 02-23-00N, Długość geograficzna: 103-51-34E, wysokość: 3 m

Aktualna obserwacja pogody

Raport powstał 59 minut temu, godzina 21:00 UTC
Wiatr 6 kt od południowy zachód
Temperatura 24°C
Wilgotność 100%
Ciśnienie 1011 hPa

METAR: WMAU 302100Z AUTO 23006KT //// // ////// 24/24 Q1011

czas: 05:59 (21:59 UTC)


TAF: brakujący

Obserwacja i prognoza pogody dla ponad 4000 lotnisk (raport METAR i TAF).

Dostępne stacje oznaczono żółtymi i czerwonymi punktami na mapie.

Najedź kursorem aby zobaczyć nazwę stacji.

Kliknij aby zobaczyć obserwacje i prognozy pogody.

Aby zmienić mapę: kliknij na zielony przycisk z czarnym krzyżykiem, aby powiększyć; na zielony przycisk z myślnikiem, aby pomniejszyć; na zielone strzałki, aby przejść do map sąsiednich.


METAR-TAF: